createdAt,value
2022-11-10T00:00:51.407Z,10.51
2022-11-10T00:03:38.860Z,10.55
2022-11-10T00:06:26.980Z,10.84
2022-11-10T00:09:13.257Z,10.89
2022-11-10T00:11:59.639Z,11.10
2022-11-10T00:15:03.789Z,11.13
2022-11-10T00:17:49.584Z,11.05
2022-11-10T00:20:35.243Z,11.16
2022-11-10T00:23:21.087Z,11.15
2022-11-10T00:26:18.852Z,11.19
2022-11-10T00:29:05.159Z,10.94
2022-11-10T00:31:50.884Z,10.99
2022-11-10T00:34:38.744Z,11.13
2022-11-10T00:37:24.973Z,11.09
2022-11-10T00:40:11.283Z,10.95
2022-11-10T00:42:57.422Z,9.96
2022-11-10T00:45:45.488Z,11.04
2022-11-10T00:48:31.158Z,11.05
2022-11-10T00:51:28.064Z,10.16
2022-11-10T00:54:13.775Z,11.10
2022-11-10T00:56:59.859Z,10.14
2022-11-10T00:59:45.226Z,10.99
2022-11-10T01:02:32.491Z,10.88
2022-11-10T01:05:17.965Z,11.02
2022-11-10T01:08:04.197Z,11.03
2022-11-10T01:10:50.104Z,10.85
2022-11-10T01:13:36.815Z,11.09
2022-11-10T01:16:31.650Z,10.89
2022-11-10T01:19:17.184Z,10.88
2022-11-10T01:22:02.971Z,10.84
2022-11-10T01:24:48.569Z,10.88
2022-11-10T01:27:34.131Z,11.08
2022-11-10T01:30:20.269Z,10.91
2022-11-10T01:33:05.737Z,10.38
2022-11-10T01:35:51.496Z,11.05
2022-11-10T01:38:40.633Z,10.96
2022-11-10T01:41:25.946Z,11.01
2022-11-10T01:44:23.362Z,10.98
2022-11-10T01:47:09.475Z,11.07
2022-11-10T01:49:55.296Z,10.92
2022-11-10T01:52:44.228Z,11.08
2022-11-10T01:55:31.224Z,11.07
2022-11-10T01:58:21.865Z,10.82
2022-11-10T02:01:08.831Z,11.06
2022-11-10T02:03:59.169Z,11.11
2022-11-10T02:06:47.159Z,10.98
2022-11-10T02:09:32.858Z,11.01
2022-11-10T02:12:37.045Z,10.96
2022-11-10T02:15:44.262Z,10.99
2022-11-10T02:18:32.012Z,11.01
2022-11-10T02:21:19.185Z,11.02
2022-11-10T02:24:05.278Z,10.98
2022-11-10T02:26:56.561Z,10.84
2022-11-10T02:29:42.603Z,10.10
2022-11-10T02:32:32.729Z,10.89
2022-11-10T02:35:19.020Z,10.83
2022-11-10T02:38:04.732Z,10.80
2022-11-10T02:40:50.309Z,10.60
2022-11-10T02:43:37.845Z,10.58
2022-11-10T02:46:23.766Z,10.94
2022-11-10T02:49:09.193Z,10.69
2022-11-10T02:51:55.118Z,10.92
2022-11-10T02:54:40.742Z,10.95
2022-11-10T02:57:25.987Z,10.88
2022-11-10T03:00:12.244Z,10.44
2022-11-10T03:02:59.309Z,10.85
2022-11-10T03:05:44.624Z,10.79
2022-11-10T03:08:29.981Z,10.76
2022-11-10T03:11:15.386Z,10.81
2022-11-10T03:14:02.468Z,10.95
2022-11-10T03:16:48.534Z,11.08
2022-11-10T03:19:34.150Z,10.79
2022-11-10T03:22:20.149Z,10.94
2022-11-10T03:25:06.984Z,10.91
2022-11-10T03:27:52.582Z,10.94
2022-11-10T03:30:39.077Z,10.73
2022-11-10T03:33:24.442Z,10.83
2022-11-10T03:36:10.254Z,10.85
2022-11-10T03:38:55.543Z,10.97
2022-11-10T03:41:41.004Z,10.99
2022-11-10T03:44:26.293Z,10.59
2022-11-10T03:47:11.537Z,10.85
2022-11-10T03:49:56.961Z,11.02
2022-11-10T03:52:46.680Z,11.01
2022-11-10T03:55:32.452Z,10.89
2022-11-10T03:58:18.071Z,10.76
2022-11-10T04:01:03.800Z,10.52
2022-11-10T04:03:51.626Z,10.34
2022-11-10T04:06:56.052Z,10.96
2022-11-10T04:09:41.863Z,10.95
2022-11-10T04:12:46.261Z,10.88
2022-11-10T04:15:44.292Z,10.79
2022-11-10T04:18:30.396Z,10.88
2022-11-10T04:21:16.192Z,10.77
2022-11-10T04:24:01.729Z,10.85
2022-11-10T04:26:48.755Z,10.73
2022-11-10T04:29:34.657Z,10.94
2022-11-10T04:32:20.762Z,10.89
2022-11-10T04:35:06.999Z,10.75
2022-11-10T04:37:52.498Z,10.74
2022-11-10T04:40:37.807Z,10.67
2022-11-10T04:43:24.415Z,10.75
2022-11-10T04:46:37.829Z,10.72
2022-11-10T04:49:24.041Z,10.72
2022-11-10T04:52:10.152Z,10.55
2022-11-10T04:54:56.339Z,10.51
2022-11-10T04:57:43.149Z,10.69
2022-11-10T05:00:28.654Z,10.60
2022-11-10T05:03:14.229Z,10.47
2022-11-10T05:06:00.200Z,10.48
2022-11-10T05:08:46.458Z,10.61
2022-11-10T05:11:31.811Z,10.45
2022-11-10T05:14:18.523Z,10.58
2022-11-10T05:17:04.193Z,10.59
2022-11-10T05:19:49.722Z,9.65
2022-11-10T05:22:35.392Z,10.33
2022-11-10T05:25:20.666Z,10.48
2022-11-10T05:28:08.546Z,10.56
2022-11-10T05:30:53.829Z,10.53
2022-11-10T05:33:39.505Z,10.44
2022-11-10T05:36:25.176Z,10.38
2022-11-10T05:39:10.407Z,9.95
2022-11-10T05:41:55.937Z,9.49
2022-11-10T05:44:41.463Z,10.41
2022-11-10T05:47:26.882Z,10.40
2022-11-10T05:50:12.426Z,10.30
2022-11-10T05:52:58.021Z,10.33
2022-11-10T05:55:43.476Z,10.32
2022-11-10T05:58:29.072Z,10.14
2022-11-10T06:01:14.667Z,10.17
2022-11-10T06:04:00.465Z,10.23
2022-11-10T06:06:46.020Z,9.76
2022-11-10T06:09:31.976Z,9.76
2022-11-10T06:12:17.790Z,10.28
2022-11-10T06:15:04.489Z,10.23
2022-11-10T06:17:50.986Z,10.34
2022-11-10T06:20:36.737Z,10.31
2022-11-10T06:23:22.384Z,10.32
2022-11-10T06:26:08.036Z,10.09
2022-11-10T06:28:53.728Z,10.30
2022-11-10T06:31:39.206Z,10.35
2022-11-10T06:34:25.098Z,10.21
2022-11-10T06:37:10.636Z,10.33
2022-11-10T06:39:56.488Z,10.38
2022-11-10T06:42:41.790Z,10.24
2022-11-10T06:45:30.810Z,10.32
2022-11-10T06:48:16.242Z,10.32
2022-11-10T06:51:03.122Z,10.41
2022-11-10T06:53:48.869Z,9.94
2022-11-10T06:56:35.125Z,10.47
2022-11-10T06:59:20.411Z,10.27
2022-11-10T07:02:06.318Z,9.80
2022-11-10T07:04:51.943Z,10.04
2022-11-10T07:07:37.777Z,9.91
2022-11-10T07:10:23.531Z,10.41
2022-11-10T07:13:10.202Z,10.41
2022-11-10T07:15:55.854Z,10.45
2022-11-10T07:18:41.578Z,9.98
2022-11-10T07:21:27.177Z,10.42
2022-11-10T07:24:12.600Z,10.02
2022-11-10T07:26:58.189Z,10.36
2022-11-10T07:29:44.091Z,10.48
2022-11-10T07:32:31.612Z,10.53
2022-11-10T07:35:17.023Z,10.46
2022-11-10T07:38:06.804Z,10.71
2022-11-10T07:40:53.921Z,10.84
2022-11-10T07:43:39.252Z,10.96
2022-11-10T07:46:25.232Z,10.69
2022-11-10T07:49:10.864Z,11.01
2022-11-10T07:51:56.749Z,10.58
2022-11-10T07:54:42.212Z,11.08
2022-11-10T07:57:27.583Z,10.99
2022-11-10T08:00:13.726Z,10.94
2022-11-10T08:03:32.322Z,10.58
2022-11-10T08:06:18.390Z,10.95
2022-11-10T08:09:04.056Z,10.69
2022-11-10T08:11:49.576Z,10.82
2022-11-10T08:14:35.440Z,10.64
2022-11-10T08:17:21.039Z,10.87
2022-11-10T08:20:07.509Z,10.78
2022-11-10T08:23:05.035Z,10.48
2022-11-10T08:25:53.057Z,9.95
2022-11-10T08:28:38.875Z,10.23
2022-11-10T08:31:24.752Z,10.81
2022-11-10T08:34:10.261Z,10.62
2022-11-10T08:36:55.981Z,10.88
2022-11-10T08:39:41.467Z,10.90
2022-11-10T08:42:27.284Z,10.95
2022-11-10T08:45:13.678Z,10.37
2022-11-10T08:48:00.315Z,11.13
2022-11-10T08:50:46.805Z,10.63
2022-11-10T08:53:32.385Z,11.23
2022-11-10T08:56:17.845Z,11.24
2022-11-10T08:59:03.465Z,11.28
2022-11-10T09:01:49.161Z,11.02
2022-11-10T09:04:35.762Z,11.17
2022-11-10T09:07:21.238Z,11.23
2022-11-10T09:10:08.016Z,11.21
2022-11-10T09:12:54.189Z,11.36
2022-11-10T09:15:41.656Z,11.26
2022-11-10T09:18:27.426Z,11.14
2022-11-10T09:21:13.096Z,11.22
2022-11-10T09:23:58.746Z,11.09
2022-11-10T09:26:47.711Z,11.23
2022-11-10T09:29:33.557Z,11.16
2022-11-10T09:32:19.476Z,11.22
2022-11-10T09:35:06.107Z,11.20
2022-11-10T09:37:51.868Z,11.49
2022-11-10T09:41:03.307Z,11.16
2022-11-10T09:44:07.438Z,11.57
2022-11-10T09:47:00.592Z,11.51
2022-11-10T09:49:51.913Z,10.64
2022-11-10T09:52:39.460Z,11.61
2022-11-10T09:55:38.915Z,11.72
2022-11-10T09:58:31.837Z,11.18
2022-11-10T10:01:35.830Z,11.51
2022-11-10T10:04:51.482Z,11.33
2022-11-10T10:07:46.783Z,11.38
2022-11-10T10:10:45.395Z,11.47
2022-11-10T10:14:09.236Z,11.54
2022-11-10T10:17:03.086Z,11.29
2022-11-10T10:19:57.835Z,11.50
2022-11-10T10:23:05.246Z,11.47
2022-11-10T10:25:53.334Z,10.46
2022-11-10T10:28:42.549Z,11.26
2022-11-10T10:31:35.719Z,11.29
2022-11-10T10:34:24.966Z,10.82
2022-11-10T10:37:24.290Z,11.37
2022-11-10T10:40:22.121Z,11.28
2022-11-10T10:43:07.953Z,11.55
2022-11-10T10:46:04.736Z,11.31
2022-11-10T10:49:32.974Z,11.52
2022-11-10T10:52:25.069Z,11.51
2022-11-10T10:55:12.948Z,11.47
2022-11-10T10:58:05.070Z,11.30
2022-11-10T11:01:01.393Z,11.69
2022-11-10T11:03:53.177Z,11.77
2022-11-10T11:06:38.712Z,11.75
2022-11-10T11:09:42.605Z,11.66
2022-11-10T11:12:33.309Z,11.67
2022-11-10T11:15:29.664Z,11.63
2022-11-10T11:18:20.795Z,11.71
2022-11-10T11:21:23.829Z,11.87
2022-11-10T11:24:46.130Z,11.74
2022-11-10T11:28:00.437Z,11.73
2022-11-10T11:31:06.834Z,11.64
2022-11-10T11:34:12.658Z,11.19
2022-11-10T11:37:13.029Z,11.60
2022-11-10T11:40:26.881Z,11.69
2022-11-10T11:43:59.948Z,11.70
2022-11-10T11:46:51.582Z,11.31
2022-11-10T11:50:18.934Z,11.71
2022-11-10T11:53:10.608Z,10.38
2022-11-10T11:56:23.125Z,11.77
2022-11-10T11:59:22.987Z,11.31
2022-11-10T12:02:20.984Z,11.63
2022-11-10T12:05:27.240Z,11.76
2022-11-10T12:08:56.064Z,11.87
2022-11-10T12:12:08.566Z,11.72
2022-11-10T12:15:09.371Z,11.84
2022-11-10T12:18:11.545Z,11.89
2022-11-10T12:21:06.523Z,11.82
2022-11-10T12:24:06.010Z,11.84
2022-11-10T12:27:04.260Z,10.94
2022-11-10T12:30:17.498Z,11.82
2022-11-10T12:33:35.253Z,11.81
2022-11-10T12:36:23.959Z,11.74
2022-11-10T12:39:18.408Z,11.62
2022-11-10T12:42:08.267Z,11.79
2022-11-10T12:45:03.192Z,11.80
2022-11-10T12:47:49.694Z,11.79
2022-11-10T12:50:53.241Z,11.81
2022-11-10T12:53:41.903Z,11.74
2022-11-10T12:57:06.450Z,11.78
2022-11-10T13:00:28.010Z,11.68
2022-11-10T13:03:34.041Z,11.67
2022-11-10T13:06:30.079Z,11.52
2022-11-10T13:09:28.620Z,11.68
2022-11-10T13:12:18.718Z,11.54
2022-11-10T13:15:39.522Z,11.66
2022-11-10T13:18:45.304Z,11.59
2022-11-10T13:21:52.710Z,11.55
2022-11-10T13:24:40.935Z,11.49
2022-11-10T13:27:35.675Z,11.41
2022-11-10T13:30:56.983Z,11.55
2022-11-10T13:34:06.661Z,11.51
2022-11-10T13:36:53.053Z,11.32
2022-11-10T13:39:39.931Z,11.39
2022-11-10T13:42:25.779Z,10.89
2022-11-10T13:45:47.688Z,11.45
2022-11-10T13:48:59.421Z,11.33
2022-11-10T13:51:56.530Z,11.11
2022-11-10T13:55:00.036Z,10.78
2022-11-10T13:58:01.486Z,11.03
2022-11-10T14:01:11.033Z,11.15
2022-11-10T14:04:00.599Z,10.71
2022-11-10T14:06:52.344Z,11.18
2022-11-10T14:09:40.922Z,11.20
2022-11-10T14:12:34.376Z,10.49
2022-11-10T14:15:24.091Z,11.10
2022-11-10T14:18:39.565Z,11.22
2022-11-10T14:21:34.091Z,10.53
2022-11-10T14:24:26.293Z,10.56
2022-11-10T14:27:21.234Z,11.07
2022-11-10T14:30:27.274Z,11.11
2022-11-10T14:33:14.761Z,11.12
2022-11-10T14:36:03.095Z,11.07
2022-11-10T14:38:50.246Z,10.88
2022-11-10T14:41:35.857Z,10.97
2022-11-10T14:44:29.747Z,11.00
2022-11-10T14:47:24.348Z,10.53
2022-11-10T14:50:26.296Z,10.44
2022-11-10T14:53:11.792Z,11.00
2022-11-10T14:56:00.285Z,10.60
2022-11-10T14:58:47.326Z,9.49
2022-11-10T15:01:37.006Z,11.04
2022-11-10T15:04:32.028Z,11.06
2022-11-10T15:07:19.113Z,10.55
2022-11-10T15:10:22.448Z,11.11
2022-11-10T15:13:14.054Z,11.12
2022-11-10T15:16:21.433Z,11.18
2022-11-10T15:19:32.146Z,11.18
2022-11-10T15:22:20.331Z,11.14
2022-11-10T15:25:21.541Z,11.10
2022-11-10T15:28:18.671Z,11.00
2022-11-10T15:31:08.107Z,10.99
2022-11-10T15:33:59.231Z,11.11
2022-11-10T15:36:45.021Z,10.71
2022-11-10T15:39:30.800Z,10.66
2022-11-10T15:42:22.198Z,11.04
2022-11-10T15:45:08.129Z,10.90
2022-11-10T15:47:54.086Z,11.03
2022-11-10T15:50:44.680Z,10.85
2022-11-10T15:53:33.141Z,11.00
2022-11-10T15:56:21.340Z,10.81
2022-11-10T15:59:06.877Z,11.03
2022-11-10T16:01:53.171Z,10.94
2022-11-10T16:04:38.700Z,10.88
2022-11-10T16:07:24.490Z,10.87
2022-11-10T16:10:10.302Z,10.58
2022-11-10T16:12:56.054Z,10.51
2022-11-10T16:15:42.619Z,10.82
2022-11-10T16:18:31.548Z,10.84
2022-11-10T16:21:20.318Z,10.92
2022-11-10T16:24:06.634Z,10.90
2022-11-10T16:26:52.609Z,10.87
2022-11-10T16:29:38.633Z,10.69
2022-11-10T16:32:24.155Z,10.67
2022-11-10T16:35:14.359Z,10.77
2022-11-10T16:38:00.012Z,10.66
2022-11-10T16:40:49.215Z,10.75
2022-11-10T16:43:35.153Z,10.63
2022-11-10T16:46:29.845Z,10.66
2022-11-10T16:49:26.765Z,10.68
2022-11-10T16:52:15.657Z,10.15
2022-11-10T16:55:01.495Z,10.58
2022-11-10T16:57:48.307Z,9.35
2022-11-10T17:00:34.415Z,10.53
2022-11-10T17:03:40.076Z,10.56
2022-11-10T17:06:27.655Z,10.55
2022-11-10T17:09:26.253Z,10.57
2022-11-10T17:12:13.761Z,9.66
2022-11-10T17:14:59.330Z,10.52
2022-11-10T17:17:47.124Z,10.51
2022-11-10T17:20:35.956Z,10.39
2022-11-10T17:23:24.128Z,10.47
2022-11-10T17:26:12.932Z,10.02
2022-11-10T17:28:58.668Z,10.47
2022-11-10T17:31:45.181Z,10.34
2022-11-10T17:34:31.153Z,10.22
2022-11-10T17:37:18.480Z,10.33
2022-11-10T17:40:13.442Z,10.44
2022-11-10T17:42:59.557Z,9.96
2022-11-10T17:45:45.599Z,10.41
2022-11-10T17:48:31.359Z,10.36
2022-11-10T17:51:19.706Z,10.32
2022-11-10T17:54:06.276Z,9.74
2022-11-10T17:56:51.857Z,10.40
2022-11-10T17:59:37.415Z,10.05
2022-11-10T18:02:23.112Z,10.38
2022-11-10T18:05:13.206Z,10.04
2022-11-10T18:07:59.082Z,10.44
2022-11-10T18:10:50.166Z,10.45
2022-11-10T18:13:37.015Z,9.91
2022-11-10T18:16:22.705Z,10.12
2022-11-10T18:19:10.345Z,10.32
2022-11-10T18:21:55.856Z,10.23
2022-11-10T18:24:42.652Z,10.19
2022-11-10T18:27:31.691Z,9.95
2022-11-10T18:30:19.039Z,10.18
2022-11-10T18:33:05.968Z,9.81
2022-11-10T18:35:52.456Z,9.95
2022-11-10T18:38:38.165Z,10.26
2022-11-10T18:41:42.174Z,10.27
2022-11-10T18:44:28.135Z,10.23
2022-11-10T18:47:14.181Z,10.22
2022-11-10T18:49:59.642Z,10.07
2022-11-10T18:52:45.727Z,10.24
2022-11-10T18:55:31.772Z,10.15
2022-11-10T18:58:17.067Z,10.10
2022-11-10T19:01:09.151Z,10.23
2022-11-10T19:03:55.186Z,10.14
2022-11-10T19:06:41.184Z,10.08
2022-11-10T19:09:26.907Z,10.20
2022-11-10T19:12:13.515Z,10.04
2022-11-10T19:14:59.080Z,9.93
2022-11-10T19:17:44.790Z,10.03
2022-11-10T19:20:30.228Z,9.73
2022-11-10T19:23:15.666Z,10.02
2022-11-10T19:26:02.930Z,10.16
2022-11-10T19:28:48.568Z,10.17
2022-11-10T19:31:34.470Z,10.13
2022-11-10T19:34:20.318Z,10.25
2022-11-10T19:37:06.080Z,10.26
2022-11-10T19:39:51.621Z,10.31
2022-11-10T19:42:37.482Z,10.27
2022-11-10T19:45:23.419Z,10.30
2022-11-10T19:48:08.950Z,10.03
2022-11-10T19:50:56.036Z,10.28
2022-11-10T19:53:47.980Z,9.86
2022-11-10T19:56:35.462Z,10.28
2022-11-10T19:59:22.132Z,9.80
2022-11-10T20:02:10.279Z,10.32
2022-11-10T20:05:13.078Z,10.30
2022-11-10T20:08:11.170Z,10.35
2022-11-10T20:11:02.365Z,10.22
2022-11-10T20:13:54.709Z,10.29
2022-11-10T20:16:40.670Z,10.22
2022-11-10T20:19:26.306Z,10.17
2022-11-10T20:22:12.971Z,10.16
2022-11-10T20:25:00.166Z,10.07
2022-11-10T20:27:45.837Z,10.12
2022-11-10T20:30:33.690Z,10.02
2022-11-10T20:33:19.085Z,10.31
2022-11-10T20:36:15.998Z,10.20
2022-11-10T20:39:04.808Z,10.02
2022-11-10T20:41:54.925Z,9.90
2022-11-10T20:44:41.338Z,10.12
2022-11-10T20:47:28.646Z,10.06
2022-11-10T20:50:17.197Z,10.19
2022-11-10T20:53:06.013Z,9.90
2022-11-10T20:56:05.031Z,10.08
2022-11-10T20:58:52.748Z,9.88
2022-11-10T21:01:38.318Z,9.91
2022-11-10T21:04:23.817Z,10.05
2022-11-10T21:07:09.196Z,10.04
2022-11-10T21:09:57.259Z,9.94
2022-11-10T21:12:52.197Z,9.59
2022-11-10T21:15:39.587Z,10.01
2022-11-10T21:18:29.746Z,10.02
2022-11-10T21:21:34.679Z,10.07
2022-11-10T21:24:20.937Z,10.05
2022-11-10T21:27:06.235Z,9.96
2022-11-10T21:29:52.058Z,9.41
2022-11-10T21:32:37.473Z,9.42
2022-11-10T21:35:23.464Z,9.90
2022-11-10T21:38:13.315Z,10.05
2022-11-10T21:40:59.071Z,9.84
2022-11-10T21:43:44.614Z,10.03
2022-11-10T21:46:30.197Z,9.56
2022-11-10T21:49:15.764Z,9.58
2022-11-10T21:52:01.491Z,9.81
2022-11-10T21:54:47.461Z,10.11
2022-11-10T21:57:33.048Z,10.12
2022-11-10T22:00:18.642Z,9.63
2022-11-10T22:03:05.857Z,10.04
2022-11-10T22:05:51.364Z,10.10
2022-11-10T22:08:37.835Z,10.17
2022-11-10T22:11:41.951Z,10.18
2022-11-10T22:14:46.470Z,10.06
2022-11-10T22:17:50.801Z,10.08
2022-11-10T22:20:36.678Z,9.95
2022-11-10T22:23:42.343Z,10.17
2022-11-10T22:26:28.284Z,10.08
2022-11-10T22:29:13.920Z,10.10
2022-11-10T22:32:00.982Z,10.04
2022-11-10T22:34:46.606Z,10.10
2022-11-10T22:37:33.341Z,10.01
2022-11-10T22:40:37.728Z,10.02
2022-11-10T22:43:41.861Z,9.75
2022-11-10T22:46:27.316Z,10.01
2022-11-10T22:49:14.791Z,10.00
2022-11-10T22:52:01.577Z,9.95
2022-11-10T22:54:46.819Z,10.03
2022-11-10T22:57:32.144Z,9.95
2022-11-10T23:00:18.043Z,9.71
2022-11-10T23:03:04.104Z,9.97
2022-11-10T23:05:56.480Z,10.02
2022-11-10T23:08:43.794Z,10.06
2022-11-10T23:11:31.845Z,9.46
2022-11-10T23:14:17.624Z,9.50
2022-11-10T23:17:03.446Z,10.05
2022-11-10T23:19:49.939Z,9.95
2022-11-10T23:22:35.529Z,9.64
2022-11-10T23:25:21.142Z,10.04
2022-11-10T23:28:06.329Z,9.72
2022-11-10T23:30:52.227Z,9.98
2022-11-10T23:33:39.181Z,8.77
2022-11-10T23:36:26.583Z,9.87
2022-11-10T23:39:13.730Z,9.99
2022-11-10T23:41:58.974Z,9.91
2022-11-10T23:44:44.574Z,10.12
2022-11-10T23:47:31.027Z,10.09
2022-11-10T23:50:16.609Z,10.06
2022-11-10T23:53:01.929Z,9.99
2022-11-10T23:55:59.418Z,10.13
2022-11-10T23:58:45.359Z,9.78
